Time;durP1;ratioP1;P1;durP2;ratioP2;P2;SDS_P1;SDS_P2;PMS_P1;PMS_P2;Temp;Humidity;BMP_temperature;BMP_pressure;BME280_temperature;BME280_humidity;BME280_pressure;Samples;Min_cycle;Max_cycle;Signal;HPM_P1;HPM_P2
2023/07/28 00:00:00;;;;;;;2.13;2.03;;;17.70;99.90;;;;;;5038166;28;20172;-79
2023/07/28 00:02:25;;;;;;;2.13;1.90;;;17.70;99.90;;;;;;5038949;28;20191;-76
2023/07/28 00:04:51;;;;;;;2.17;2.07;;;17.60;99.90;;;;;;5020432;28;20284;-76
2023/07/28 00:07:18;;;;;;;2.03;1.93;;;17.60;99.90;;;;;;5038221;28;20650;-77
2023/07/28 00:09:44;;;;;;;2.33;2.23;;;17.60;99.90;;;;;;5036899;28;20179;-79
2023/07/28 00:12:09;;;;;;;2.37;2.27;;;17.70;99.90;;;;;;5035809;28;20177;-76
2023/07/28 00:14:35;;;;;;;2.10;2.00;;;17.80;99.90;;;;;;5017866;28;20180;-76
2023/07/28 00:17:01;;;;;;;2.53;2.20;;;17.90;99.90;;;;;;5036485;28;20306;-78
2023/07/28 00:19:27;;;;;;;3.17;2.03;;;17.90;99.90;;;;;;5038378;28;20187;-75
2023/07/28 00:21:53;;;;;;;3.00;2.17;;;17.80;99.90;;;;;;5037499;28;20165;-75
2023/07/28 00:24:19;;;;;;;2.10;2.00;;;17.80;99.90;;;;;;5036203;28;20180;-80
2023/07/28 00:26:45;;;;;;;1.97;1.87;;;17.70;99.90;;;;;;5035967;28;20165;-76
2023/07/28 00:29:11;;;;;;;2.37;1.90;;;17.80;99.90;;;;;;5017904;28;20202;-77
2023/07/28 00:31:36;;;;;;;1.93;1.83;;;17.80;99.90;;;;;;5039355;28;20172;-77
2023/07/28 00:34:03;;;;;;;2.60;2.37;;;17.70;99.90;;;;;;5045656;28;20176;-76
2023/07/28 00:36:29;;;;;;;2.50;2.10;;;17.70;99.90;;;;;;5030022;28;20181;-78
2023/07/28 00:38:55;;;;;;;2.30;2.00;;;17.70;99.90;;;;;;5040126;28;20179;-76
2023/07/28 00:41:21;;;;;;;2.00;1.90;;;17.60;99.90;;;;;;5046293;28;20184;-77
2023/07/28 00:43:47;;;;;;;2.50;2.20;;;17.60;99.90;;;;;;5042340;28;20339;-79
2023/07/28 00:46:13;;;;;;;2.90;2.10;;;17.60;99.90;;;;;;5045058;28;20654;-77
2023/07/28 00:48:40;;;;;;;2.90;2.20;;;17.60;99.90;;;;;;5042593;28;20200;-78
2023/07/28 00:51:07;;;;;;;2.23;2.13;;;17.60;99.90;;;;;;5039050;28;20563;-77
2023/07/28 00:53:33;;;;;;;2.10;2.00;;;17.60;99.90;;;;;;5039432;28;20168;-77
2023/07/28 00:55:59;;;;;;;2.07;1.97;;;17.60;99.90;;;;;;5039109;28;20172;-78
2023/07/28 00:58:25;;;;;;;2.20;2.10;;;17.70;99.90;;;;;;5021799;28;20186;-78
2023/07/28 01:00:51;;;;;;;1.70;1.70;;;17.70;99.90;;;;;;5040856;28;20187;-79
2023/07/28 01:03:20;;;;;;;2.10;1.90;;;17.70;99.90;;;;;;5040841;28;20169;-77
2023/07/28 01:06:04;;;;;;;2.40;2.30;;;17.70;99.90;;;;;;5040537;28;20197;-77
2023/07/28 01:08:38;;;;;;;4.70;2.10;;;17.60;99.90;;;;;;5048316;28;20183;-77
2023/07/28 01:11:04;;;;;;;2.37;2.00;;;17.60;99.90;;;;;;5050357;28;20169;-77
2023/07/28 01:13:30;;;;;;;2.10;1.90;;;17.50;99.90;;;;;;5039807;28;20184;-79
2023/07/28 01:15:57;;;;;;;2.13;2.03;;;17.40;99.90;;;;;;5038818;28;20173;-80
2023/07/28 01:18:23;;;;;;;2.13;2.03;;;17.40;99.90;;;;;;5038356;28;20533;-77
2023/07/28 01:20:55;;;;;;;2.03;1.93;;;17.40;99.90;;;;;;5020615;28;20260;-80
2023/07/28 01:23:37;;;;;;;3.53;2.13;;;17.40;99.90;;;;;;5020430;28;20234;-79
2023/07/28 01:26:10;;;;;;;2.00;1.90;;;17.40;99.90;;;;;;5038173;28;20210;-77
2023/07/28 01:28:37;;;;;;;2.30;2.20;;;17.30;99.90;;;;;;5020247;28;20697;-78
2023/07/28 01:31:07;;;;;;;2.60;2.40;;;17.30;99.90;;;;;;5037481;28;20182;-76
2023/07/28 01:33:34;;;;;;;2.27;1.77;;;17.30;99.90;;;;;;5036679;28;20250;-77
2023/07/28 01:36:00;;;;;;;2.00;1.90;;;17.30;99.90;;;;;;5038472;28;20589;-75
2023/07/28 01:38:27;;;;;;;2.03;1.93;;;17.30;99.90;;;;;;5023041;28;20199;-76
2023/07/28 01:40:53;;;;;;;2.20;2.10;;;17.30;99.90;;;;;;5044051;28;20186;-75
2023/07/28 01:43:19;;;;;;;2.23;2.13;;;17.20;99.90;;;;;;5037536;28;20180;-77
2023/07/28 01:45:45;;;;;;;2.40;2.20;;;17.30;99.90;;;;;;5003647;28;20216;-80
2023/07/28 01:48:11;;;;;;;2.20;2.10;;;17.20;99.90;;;;;;5037642;28;20172;-75
2023/07/28 01:50:37;;;;;;;2.43;2.23;;;17.20;99.90;;;;;;5037335;28;20250;-78
2023/07/28 01:53:05;;;;;;;2.20;2.10;;;17.20;99.90;;;;;;5019943;28;20635;-78
2023/07/28 01:55:31;;;;;;;2.13;2.03;;;17.20;99.90;;;;;;5037293;28;20179;-76
2023/07/28 01:58:02;;;;;;;2.40;2.30;;;17.20;99.90;;;;;;5038745;28;20203;-78
2023/07/28 02:00:28;;;;;;;2.10;2.00;;;17.10;99.90;;;;;;5037737;28;20175;-77
2023/07/28 02:02:54;;;;;;;2.87;2.60;;;17.10;99.90;;;;;;5020463;28;20187;-77
2023/07/28 02:05:21;;;;;;;2.43;2.27;;;17.10;99.90;;;;;;5040897;28;20210;-76
2023/07/28 02:07:47;;;;;;;2.60;2.07;;;17.00;99.90;;;;;;5033334;28;20179;-79
2023/07/28 02:10:13;;;;;;;3.00;2.90;;;17.00;99.90;;;;;;5045627;28;20549;-77
2023/07/28 02:12:39;;;;;;;2.17;2.07;;;16.90;99.90;;;;;;5034001;28;20184;-76
2023/07/28 02:15:08;;;;;;;2.50;2.30;;;16.90;99.90;;;;;;5040431;28;20546;-78
2023/07/28 02:17:34;;;;;;;2.30;2.20;;;16.90;99.90;;;;;;5041450;28;20268;-77
2023/07/28 02:20:03;;;;;;;2.23;2.03;;;16.80;99.90;;;;;;5041207;28;20183;-76
2023/07/28 02:22:29;;;;;;;2.33;2.23;;;16.80;99.90;;;;;;5040483;28;20632;-78
2023/07/28 02:24:55;;;;;;;2.40;2.20;;;16.80;99.90;;;;;;5053223;28;20244;-79
2023/07/28 02:27:20;;;;;;;2.30;2.10;;;16.70;99.90;;;;;;5021618;28;20180;-77
2023/07/28 02:29:47;;;;;;;1.90;1.80;;;16.70;99.90;;;;;;5037625;28;20176;-78
2023/07/28 02:32:13;;;;;;;2.40;2.30;;;16.80;99.90;;;;;;5036890;28;20171;-79
2023/07/28 02:34:39;;;;;;;2.30;2.20;;;16.80;99.90;;;;;;5036784;28;20180;-76
2023/07/28 02:37:05;;;;;;;2.20;2.10;;;16.80;99.90;;;;;;5040787;28;20189;-76
2023/07/28 02:39:30;;;;;;;2.13;2.03;;;16.60;99.90;;;;;;5038712;28;20172;-78
2023/07/28 02:41:56;;;;;;;2.20;2.10;;;16.70;99.90;;;;;;5036954;28;20248;-74
2023/07/28 02:44:26;;;;;;;2.50;2.37;;;16.60;99.90;;;;;;5038609;28;20274;-76
2023/07/28 02:46:52;;;;;;;2.90;2.70;;;16.60;99.90;;;;;;5046234;28;20260;-79
2023/07/28 02:49:18;;;;;;;2.73;2.50;;;16.60;99.90;;;;;;5053753;28;20160;-75
2023/07/28 02:51:44;;;;;;;2.53;2.20;;;16.50;99.90;;;;;;5047851;28;20176;-78
2023/07/28 02:54:10;;;;;;;2.90;2.70;;;16.50;99.90;;;;;;5045173;28;20267;-78
2023/07/28 02:56:37;;;;;;;2.77;2.63;;;16.50;99.90;;;;;;5050218;28;20226;-78
2023/07/28 02:59:04;;;;;;;2.20;2.10;;;16.40;99.90;;;;;;5042383;28;20169;-76
2023/07/28 03:01:33;;;;;;;3.07;2.60;;;16.40;99.90;;;;;;5050110;28;20176;-77
2023/07/28 03:04:01;;;;;;;3.07;2.47;;;16.40;99.90;;;;;;5048171;28;20180;-76
2023/07/28 03:06:26;;;;;;;2.13;2.03;;;16.30;99.90;;;;;;5046231;28;20281;-76
2023/07/28 03:08:52;;;;;;;2.60;2.40;;;16.30;99.90;;;;;;5025097;28;20173;-77
2023/07/28 03:11:18;;;;;;;2.50;2.30;;;16.30;99.90;;;;;;5019749;28;20637;-78
2023/07/28 03:13:44;;;;;;;2.97;2.50;;;16.30;99.90;;;;;;5018757;28;20177;-78
2023/07/28 03:16:10;;;;;;;2.43;2.30;;;16.30;99.90;;;;;;5036619;28;20171;-76
2023/07/28 03:18:36;;;;;;;2.30;2.20;;;16.30;99.90;;;;;;5036622;28;20257;-77
2023/07/28 03:21:02;;;;;;;2.53;2.33;;;16.20;99.90;;;;;;5018404;28;20216;-77
2023/07/28 03:23:27;;;;;;;2.70;2.60;;;16.20;99.90;;;;;;5018010;28;20227;-75
2023/07/28 03:25:53;;;;;;;2.60;2.40;;;16.20;99.90;;;;;;5018463;28;20636;-78
2023/07/28 03:28:19;;;;;;;2.70;2.50;;;16.10;99.90;;;;;;5036654;28;20202;-76
2023/07/28 03:30:46;;;;;;;3.17;2.90;;;16.20;99.90;;;;;;5036848;28;20203;-78
2023/07/28 03:33:12;;;;;;;2.93;2.63;;;16.20;99.90;;;;;;5035845;28;20234;-77
2023/07/28 03:35:38;;;;;;;2.60;2.37;;;16.10;99.90;;;;;;5035576;28;20173;-79
2023/07/28 03:38:03;;;;;;;2.40;2.30;;;16.10;99.90;;;;;;5035963;28;20183;-75
2023/07/28 03:40:29;;;;;;;3.30;3.00;;;16.10;99.90;;;;;;5041809;28;20231;-78
2023/07/28 03:42:55;;;;;;;2.73;2.53;;;16.10;99.90;;;;;;5024878;28;20176;-76
2023/07/28 03:45:22;;;;;;;2.60;2.40;;;16.10;99.90;;;;;;5020664;28;20229;-76
2023/07/28 03:47:47;;;;;;;3.07;2.47;;;16.10;99.90;;;;;;5003190;28;20185;-76
2023/07/28 03:50:13;;;;;;;2.30;2.20;;;16.10;99.90;;;;;;5028930;28;20226;-77
2023/07/28 03:52:39;;;;;;;2.80;2.30;;;16.10;99.90;;;;;;5036962;28;20230;-79
2023/07/28 03:55:05;;;;;;;4.57;2.20;;;16.20;99.90;;;;;;5036216;28;20173;-76
2023/07/28 03:57:31;;;;;;;2.83;2.63;;;16.30;99.90;;;;;;5018487;28;20190;-77
2023/07/28 03:59:56;;;;;;;3.33;2.70;;;16.30;99.90;;;;;;5049236;28;20208;-76
2023/07/28 04:02:22;;;;;;;2.40;2.30;;;16.30;99.90;;;;;;5039585;28;20164;-80
2023/07/28 04:04:54;;;;;;;3.17;2.43;;;16.30;99.90;;;;;;5035448;28;20209;-77
2023/07/28 04:07:20;;;;;;;2.63;2.40;;;16.40;99.90;;;;;;5037258;28;20216;-76
2023/07/28 04:09:46;;;;;;;2.60;2.40;;;16.30;99.90;;;;;;5036686;28;20177;-80
2023/07/28 04:12:12;;;;;;;2.30;2.20;;;16.30;99.90;;;;;;5035203;28;20662;-77
2023/07/28 04:14:38;;;;;;;2.33;2.20;;;16.20;99.90;;;;;;5037313;28;20180;-77
2023/07/28 04:17:04;;;;;;;2.70;2.30;;;16.30;99.90;;;;;;5036911;28;20178;-76
2023/07/28 04:19:30;;;;;;;2.20;2.10;;;16.20;99.90;;;;;;5017233;28;20318;-78
2023/07/28 04:22:00;;;;;;;2.97;2.33;;;16.20;99.90;;;;;;5033837;28;20259;-78
2023/07/28 04:24:26;;;;;;;2.37;2.17;;;16.20;99.90;;;;;;5034003;28;20505;-77
2023/07/28 04:26:51;;;;;;;3.00;2.40;;;16.20;99.90;;;;;;5033777;28;20175;-76
2023/07/28 04:29:17;;;;;;;2.50;2.40;;;16.20;99.90;;;;;;5049573;28;20168;-74
2023/07/28 04:31:43;;;;;;;2.50;2.30;;;16.10;99.90;;;;;;5046238;28;20184;-76
2023/07/28 04:34:09;;;;;;;2.60;2.43;;;16.00;99.90;;;;;;5023613;28;20177;-78
2023/07/28 04:36:34;;;;;;;2.40;2.30;;;16.00;99.90;;;;;;5036437;28;20175;-77
2023/07/28 04:39:00;;;;;;;2.90;2.40;;;16.00;99.90;;;;;;5034558;28;20695;-79
2023/07/28 04:41:26;;;;;;;2.70;2.60;;;16.10;99.90;;;;;;5034657;28;20528;-76
2023/07/28 04:43:52;;;;;;;2.73;2.53;;;16.20;99.90;;;;;;5033502;28;20218;-78
2023/07/28 04:46:18;;;;;;;3.67;2.60;;;16.30;99.90;;;;;;5024037;28;20209;-76
2023/07/28 04:48:43;;;;;;;3.53;2.90;;;16.30;99.90;;;;;;5046567;28;20176;-77
2023/07/28 04:51:09;;;;;;;2.87;2.53;;;16.40;99.90;;;;;;5033955;28;20173;-79
2023/07/28 04:53:37;;;;;;;2.80;2.60;;;16.40;99.90;;;;;;5016786;28;20187;-76
2023/07/28 04:56:03;;;;;;;2.50;2.30;;;16.40;99.90;;;;;;5016900;28;20177;-77
2023/07/28 04:58:30;;;;;;;4.27;2.90;;;16.40;99.90;;;;;;5034583;28;20532;-75
2023/07/28 05:00:55;;;;;;;3.07;2.77;;;16.30;99.90;;;;;;5034477;28;20180;-77
2023/07/28 05:03:21;;;;;;;3.07;2.77;;;16.40;99.90;;;;;;5017777;28;20651;-75
2023/07/28 05:05:47;;;;;;;4.80;2.70;;;16.40;99.90;;;;;;5040394;28;20208;-77
2023/07/28 05:08:13;;;;;;;3.20;2.70;;;16.50;99.90;;;;;;5049079;28;20228;-80
2023/07/28 05:10:38;;;;;;;2.77;2.57;;;16.60;99.90;;;;;;5043596;28;20509;-78
2023/07/28 05:13:06;;;;;;;3.20;2.97;;;16.70;99.90;;;;;;5043979;28;20169;-77
2023/07/28 05:15:31;;;;;;;3.00;2.80;;;16.70;99.90;;;;;;5016611;28;20199;-76
2023/07/28 05:17:57;;;;;;;3.20;2.90;;;16.80;99.90;;;;;;5040645;28;20593;-77
2023/07/28 05:20:23;;;;;;;4.57;2.93;;;16.80;99.90;;;;;;5043715;28;20173;-79
2023/07/28 05:22:48;;;;;;;3.90;2.87;;;16.80;99.90;;;;;;5038057;28;20190;-77
2023/07/28 05:25:14;;;;;;;3.53;3.23;;;16.80;99.90;;;;;;5037774;28;20211;-76
2023/07/28 05:27:40;;;;;;;3.53;3.23;;;16.90;99.90;;;;;;5040899;28;20635;-75
2023/07/28 05:30:07;;;;;;;5.23;2.80;;;16.90;99.90;;;;;;5040564;28;20910;-76
2023/07/28 05:32:36;;;;;;;2.80;2.60;;;17.10;99.90;;;;;;5023749;28;20175;-77
2023/07/28 05:35:05;;;;;;;3.13;2.87;;;17.20;99.90;;;;;;5023411;28;20210;-76
2023/07/28 05:37:31;;;;;;;3.23;2.80;;;17.30;99.90;;;;;;5022801;28;20184;-77
2023/07/28 05:39:57;;;;;;;3.60;2.90;;;17.30;99.90;;;;;;5048943;28;20179;-77
2023/07/28 05:42:24;;;;;;;3.17;2.97;;;17.40;99.90;;;;;;5019969;28;20177;-77
2023/07/28 05:44:52;;;;;;;3.67;2.93;;;17.40;99.90;;;;;;5038247;28;20239;-79
2023/07/28 05:47:17;;;;;;;3.77;3.27;;;17.60;99.90;;;;;;5038993;28;20180;-76
2023/07/28 05:49:43;;;;;;;3.10;2.87;;;17.70;99.90;;;;;;5039072;28;20632;-80
2023/07/28 05:52:09;;;;;;;2.90;2.70;;;17.70;99.90;;;;;;5039207;28;20688;-77
2023/07/28 05:54:34;;;;;;;3.50;3.20;;;17.90;99.90;;;;;;5036808;28;20165;-79
2023/07/28 05:57:00;;;;;;;3.50;2.80;;;18.00;99.90;;;;;;5036726;28;20177;-80
2023/07/28 05:59:27;;;;;;;4.37;3.00;;;18.10;99.90;;;;;;5037031;28;20187;-77
2023/07/28 06:01:53;;;;;;;4.83;2.83;;;18.20;99.90;;;;;;5036745;28;20179;-76
2023/07/28 06:04:19;;;;;;;3.57;2.57;;;18.30;99.90;;;;;;5035980;28;20176;-79
2023/07/28 06:06:44;;;;;;;3.17;2.80;;;18.40;99.90;;;;;;5019196;28;20246;-78
2023/07/28 06:09:11;;;;;;;3.13;2.83;;;18.50;99.90;;;;;;5053735;28;20172;-77
2023/07/28 06:11:37;;;;;;;6.40;2.50;;;18.60;99.90;;;;;;5045360;28;20259;-78
2023/07/28 06:14:03;;;;;;;3.90;2.47;;;18.70;99.90;;;;;;5040492;28;20248;-78
2023/07/28 06:16:28;;;;;;;3.97;2.20;;;18.80;99.90;;;;;;5037290;28;20176;-75
2023/07/28 06:18:54;;;;;;;2.63;2.30;;;18.80;99.90;;;;;;5018951;28;20211;-78
2023/07/28 06:21:20;;;;;;;2.53;2.43;;;18.70;99.90;;;;;;5043779;28;20181;-76
2023/07/28 06:23:46;;;;;;;2.60;2.40;;;18.80;99.90;;;;;;5021769;28;20188;-77
2023/07/28 06:26:11;;;;;;;2.10;2.00;;;18.90;99.90;;;;;;5036899;28;20208;-77
2023/07/28 06:28:38;;;;;;;3.17;2.67;;;19.00;99.90;;;;;;5018385;28;20228;-77
2023/07/28 06:31:05;;;;;;;4.97;2.50;;;19.10;99.90;;;;;;5037611;28;20271;-78
2023/07/28 06:33:31;;;;;;;4.43;3.20;;;19.30;99.90;;;;;;5018651;28;20602;-75
2023/07/28 06:36:00;;;;;;;3.33;3.03;;;19.30;99.90;;;;;;5037017;28;20573;-78
2023/07/28 06:38:25;;;;;;;7.73;3.53;;;19.60;99.90;;;;;;5036218;28;20168;-76
2023/07/28 06:40:52;;;;;;;3.80;2.80;;;19.70;99.90;;;;;;5036044;28;20508;-77
2023/07/28 06:43:19;;;;;;;5.37;2.73;;;19.80;99.90;;;;;;5036297;28;20183;-76
2023/07/28 06:45:45;;;;;;;2.97;2.77;;;20.00;99.90;;;;;;5035814;28;20299;-77
2023/07/28 06:48:11;;;;;;;3.63;2.70;;;20.10;99.90;;;;;;5017986;28;20204;-76
2023/07/28 06:50:36;;;;;;;8.53;3.00;;;20.20;99.90;;;;;;5035849;28;20599;-79
2023/07/28 06:53:02;;;;;;;6.90;3.30;;;20.30;99.90;;;;;;5018325;28;20210;-79
2023/07/28 06:55:30;;;;;;;5.80;3.37;;;20.20;99.90;;;;;;5021301;28;20644;-76
2023/07/28 06:57:56;;;;;;;3.77;3.13;;;20.20;99.90;;;;;;5037211;28;20173;-75
2023/07/28 07:00:23;;;;;;;3.03;2.83;;;20.30;99.90;;;;;;5035598;28;20299;-79
2023/07/28 07:02:48;;;;;;;4.17;2.90;;;20.30;99.90;;;;;;5034998;28;20551;-77
2023/07/28 07:05:14;;;;;;;3.30;3.00;;;20.40;99.90;;;;;;5045307;28;20242;-79
2023/07/28 07:07:41;;;;;;;2.67;2.47;;;20.50;99.90;;;;;;5037843;28;20252;-78
2023/07/28 07:10:07;;;;;;;3.20;3.00;;;20.50;99.90;;;;;;5036105;28;20169;-77
2023/07/28 07:12:33;;;;;;;2.73;2.53;;;20.60;99.90;;;;;;5035071;28;20204;-78
2023/07/28 07:14:59;;;;;;;3.33;2.87;;;20.60;99.90;;;;;;5021829;28;20176;-78
2023/07/28 07:17:25;;;;;;;3.60;3.10;;;20.80;99.90;;;;;;5044992;28;20164;-78
2023/07/28 07:19:50;;;;;;;3.93;2.90;;;20.70;99.90;;;;;;5035352;28;20207;-77
2023/07/28 07:22:16;;;;;;;3.33;3.03;;;20.80;99.90;;;;;;5035364;28;20616;-78
2023/07/28 07:24:42;;;;;;;3.00;2.80;;;20.90;99.90;;;;;;5034789;28;20216;-79
2023/07/28 07:27:10;;;;;;;2.83;2.50;;;21.00;99.90;;;;;;5017798;28;20184;-77
2023/07/28 07:29:40;;;;;;;4.13;2.73;;;21.10;99.90;;;;;;5034791;28;20192;-76
2023/07/28 07:32:07;;;;;;;2.93;2.73;;;21.30;99.90;;;;;;5025175;28;20255;-75
2023/07/28 07:34:36;;;;;;;3.50;2.40;;;21.40;99.90;;;;;;5045258;28;20574;-77
2023/07/28 07:37:02;;;;;;;3.10;2.90;;;21.50;99.90;;;;;;5016985;28;20593;-76
2023/07/28 07:39:28;;;;;;;3.20;2.47;;;21.70;99.90;;;;;;5033834;28;20639;-76
2023/07/28 07:41:54;;;;;;;3.20;2.42;;;21.90;99.90;;;;;;5033847;28;20168;-78
2023/07/28 07:44:20;;;;;;;3.47;2.70;;;22.00;99.90;;;;;;5007754;28;20264;-80
2023/07/28 07:46:46;;;;;;;2.80;2.58;;;22.10;99.90;;;;;;5017719;28;20185;-79
2023/07/28 07:49:12;;;;;;;2.55;2.45;;;22.10;99.90;;;;;;5027596;28;20173;-78
2023/07/28 07:51:37;;;;;;;3.13;2.30;;;22.00;99.90;;;;;;5009152;28;20172;-77
2023/07/28 07:54:03;;;;;;;3.28;2.78;;;22.10;99.90;;;;;;4999111;28;20181;-77
2023/07/28 07:56:29;;;;;;;5.10;3.55;;;22.00;99.90;;;;;;5015677;28;20267;-78
2023/07/28 07:58:55;;;;;;;6.72;2.60;;;22.10;99.90;;;;;;5014819;28;20173;-78
2023/07/28 08:01:21;;;;;;;2.70;2.50;;;22.20;99.90;;;;;;5014607;28;20177;-77
2023/07/28 08:03:47;;;;;;;3.00;2.33;;;22.30;99.90;;;;;;5015199;28;20177;-79
2023/07/28 08:06:13;;;;;;;2.60;2.03;;;22.40;99.90;;;;;;5016510;28;20267;-79
2023/07/28 08:08:40;;;;;;;4.50;2.00;;;22.20;99.90;;;;;;5006243;28;20173;-77
2023/07/28 08:11:07;;;;;;;2.20;2.10;;;22.30;99.90;;;;;;5025313;28;20174;-77
2023/07/28 08:13:33;;;;;;;2.35;2.10;;;22.50;99.90;;;;;;4998821;28;20271;-77
2023/07/28 08:15:59;;;;;;;2.95;2.00;;;22.70;99.90;;;;;;5015203;28;20259;-80
2023/07/28 08:18:24;;;;;;;2.20;2.10;;;22.80;99.90;;;;;;5014822;28;20185;-76
2023/07/28 08:20:50;;;;;;;2.20;2.10;;;23.00;99.90;;;;;;5014776;28;20188;-77
2023/07/28 08:23:16;;;;;;;2.08;1.90;;;23.10;99.90;;;;;;4996566;28;20263;-77
2023/07/28 08:25:42;;;;;;;2.42;2.20;;;23.00;99.90;;;;;;5015217;28;20286;-76
2023/07/28 08:28:09;;;;;;;15.98;2.58;;;22.80;99.90;;;;;;5015185;28;20256;-78
2023/07/28 08:30:34;;;;;;;2.78;1.92;;;22.80;99.90;;;;;;4996489;28;20177;-78
2023/07/28 08:33:00;;;;;;;3.67;2.75;;;22.90;99.90;;;;;;5014564;28;20256;-76
2023/07/28 08:35:26;;;;;;;2.30;2.10;;;23.00;99.90;;;;;;5014790;28;20179;-79
2023/07/28 08:37:51;;;;;;;2.53;2.33;;;23.10;99.90;;;;;;5014767;28;20216;-77
2023/07/28 08:40:19;;;;;;;4.80;2.10;;;23.20;99.90;;;;;;5014735;28;20208;-75
2023/07/28 08:42:45;;;;;;;2.00;1.90;;;23.30;99.90;;;;;;5023945;28;20169;-76
2023/07/28 08:45:10;;;;;;;2.85;2.15;;;23.40;99.90;;;;;;5031086;28;20250;-77
2023/07/28 08:47:37;;;;;;;2.10;2.00;;;23.40;99.90;;;;;;5034131;28;20614;-78
2023/07/28 08:50:05;;;;;;;1.98;1.85;;;23.40;99.20;;;;;;5033999;28;20169;-78
2023/07/28 08:52:32;;;;;;;3.00;1.88;;;23.40;99.10;;;;;;5036702;28;20189;-76
2023/07/28 08:54:57;;;;;;;1.95;1.85;;;23.40;98.90;;;;;;5042592;28;20539;-76
2023/07/28 08:57:23;;;;;;;2.10;2.00;;;23.20;98.30;;;;;;5037907;28;20209;-77
2023/07/28 08:59:50;;;;;;;2.05;1.80;;;23.30;98.60;;;;;;5038063;28;20207;-77
2023/07/28 09:02:18;;;;;;;2.10;2.00;;;23.50;99.60;;;;;;5040857;28;20176;-78
2023/07/28 09:04:47;;;;;;;2.10;2.00;;;23.50;99.90;;;;;;5038081;28;20283;-76
2023/07/28 09:07:12;;;;;;;2.00;1.90;;;23.60;98.60;;;;;;5037173;28;20169;-78
2023/07/28 09:09:38;;;;;;;2.10;2.00;;;23.60;98.40;;;;;;5037191;28;20622;-77
2023/07/28 09:12:04;;;;;;;2.05;1.95;;;23.50;98.40;;;;;;5019421;28;20207;-76
2023/07/28 09:14:31;;;;;;;2.30;1.65;;;23.60;98.60;;;;;;5037287;28;20180;-79
2023/07/28 09:17:15;;;;;;;2.95;2.10;;;23.60;98.90;;;;;;5037300;28;20255;-78
2023/07/28 09:19:58;;;;;;;2.20;2.00;;;23.70;99.40;;;;;;5037110;28;20152;-77
2023/07/28 09:22:24;;;;;;;3.83;2.10;;;23.70;98.90;;;;;;5037170;28;20239;-77
2023/07/28 09:24:51;;;;;;;2.70;1.83;;;23.80;98.30;;;;;;5036891;28;20304;-79
2023/07/28 09:27:29;;;;;;;2.10;2.00;;;23.90;99.00;;;;;;5042363;28;20241;-78
2023/07/28 09:29:56;;;;;;;2.80;2.00;;;24.20;98.80;;;;;;5055914;28;20191;-79
2023/07/28 09:32:30;;;;;;;2.03;1.90;;;24.20;98.20;;;;;;5041637;28;20168;-77
2023/07/28 09:35:11;;;;;;;2.20;2.05;;;24.40;98.10;;;;;;5037360;28;20178;-76
2023/07/28 09:37:42;;;;;;;2.00;1.90;;;24.50;98.00;;;;;;5036942;28;20168;-79
2023/07/28 09:40:11;;;;;;;2.10;2.00;;;24.60;97.70;;;;;;5036866;28;20157;-78
2023/07/28 09:42:38;;;;;;;2.20;2.10;;;24.70;97.60;;;;;;5037257;28;20278;-79
2023/07/28 09:45:06;;;;;;;2.03;1.92;;;24.80;96.40;;;;;;5036081;28;20216;-79
2023/07/28 09:47:37;;;;;;;1.77;1.70;;;24.80;96.80;;;;;;5037209;28;20177;-77
2023/07/28 09:50:04;;;;;;;1.80;1.70;;;24.70;97.30;;;;;;5037559;28;20165;-76
2023/07/28 09:52:42;;;;;;;2.15;2.05;;;24.70;98.00;;;;;;5039501;28;20196;-77
2023/07/28 09:55:10;;;;;;;1.85;1.77;;;24.70;98.00;;;;;;5037725;28;20248;-80
2023/07/28 09:57:40;;;;;;;2.33;2.13;;;24.70;96.90;;;;;;5020196;28;20231;-80
2023/07/28 10:00:10;;;;;;;2.30;2.10;;;24.70;95.70;;;;;;5037540;28;20204;-75
2023/07/28 10:02:37;;;;;;;3.35;3.15;;;24.70;95.70;;;;;;5037080;28;20636;-77
2023/07/28 10:05:04;;;;;;;3.53;3.22;;;24.90;97.50;;;;;;5037203;28;20290;-78
2023/07/28 10:07:30;;;;;;;2.30;2.20;;;25.00;98.10;;;;;;5039260;28;20200;-77
2023/07/28 10:09:57;;;;;;;2.55;2.40;;;25.10;97.40;;;;;;5039768;28;20203;-77
2023/07/28 10:12:26;;;;;;;2.35;2.25;;;25.10;98.00;;;;;;5037244;28;20175;-78
2023/07/28 10:15:03;;;;;;;2.20;2.10;;;25.00;98.10;;;;;;5036795;28;20529;-78
2023/07/28 10:17:34;;;;;;;2.40;2.20;;;25.10;98.10;;;;;;5042967;28;20179;-76
2023/07/28 10:20:27;;;;;;;2.30;2.20;;;25.10;97.50;;;;;;5046279;28;20256;-77
2023/07/28 10:22:53;;;;;;;1.98;1.88;;;25.10;96.60;;;;;;5037564;28;20165;-77
2023/07/28 10:25:24;;;;;;;1.70;1.65;;;25.10;95.20;;;;;;5036346;28;20208;-78
2023/07/28 10:27:51;;;;;;;2.35;2.00;;;25.00;95.40;;;;;;5036284;28;20177;-80
2023/07/28 10:30:19;;;;;;;2.10;2.00;;;25.20;95.90;;;;;;5036481;28;20176;-78
2023/07/28 10:32:50;;;;;;;1.80;1.70;;;25.20;94.60;;;;;;5023102;28;20180;-77
2023/07/28 10:35:27;;;;;;;2.67;1.83;;;25.30;94.70;;;;;;5019455;28;20168;-80
2023/07/28 10:37:58;;;;;;;1.80;1.70;;;25.40;94.00;;;;;;5039410;28;20160;-77
2023/07/28 10:40:34;;;;;;;2.33;2.13;;;25.50;94.80;;;;;;5053207;28;20248;-79
2023/07/28 10:43:05;;;;;;;2.10;2.00;;;25.60;95.60;;;;;;5044367;28;20176;-78
2023/07/28 10:45:32;;;;;;;2.05;1.95;;;25.70;96.00;;;;;;5002039;28;20228;-76
2023/07/28 10:48:03;;;;;;;1.98;1.88;;;25.80;95.80;;;;;;5016948;28;20180;-77
2023/07/28 10:50:32;;;;;;;1.98;1.80;;;26.00;95.30;;;;;;5016962;28;20205;-77
2023/07/28 10:52:58;;;;;;;4.13;3.72;;;25.80;94.80;;;;;;5016424;28;20183;-77
2023/07/28 10:55:26;;;;;;;3.83;3.60;;;26.20;94.70;;;;;;5016361;28;20252;-76
2023/07/28 10:57:54;;;;;;;5.82;5.32;;;26.30;94.70;;;;;;5017695;28;20173;-76
2023/07/28 11:00:22;;;;;;;2.45;2.35;;;26.30;94.60;;;;;;5016543;28;20177;-78
2023/07/28 11:02:51;;;;;;;4.70;4.30;;;26.20;95.10;;;;;;5016317;28;20180;-78
2023/07/28 11:05:28;;;;;;;4.35;3.97;;;26.30;95.40;;;;;;5015901;28;20235;-76
2023/07/28 11:07:59;;;;;;;2.25;2.15;;;26.30;96.00;;;;;;5027295;28;20161;-79
2023/07/28 11:10:29;;;;;;;2.42;2.22;;;26.30;96.20;;;;;;5033070;28;20233;-76
2023/07/28 11:13:01;;;;;;;2.28;2.17;;;26.30;95.70;;;;;;5029086;28;20173;-78
2023/07/28 11:15:27;;;;;;;1.67;1.67;;;26.50;95.40;;;;;;5022925;28;20161;-77
2023/07/28 11:17:54;;;;;;;2.15;2.05;;;26.60;95.20;;;;;;5017597;28;20531;-76
2023/07/28 11:20:24;;;;;;;1.95;1.95;;;26.40;95.30;;;;;;5016269;28;20288;-78
2023/07/28 11:23:04;;;;;;;1.88;1.77;;;26.50;95.10;;;;;;4997673;28;20166;-78
2023/07/28 11:25:31;;;;;;;2.00;1.90;;;26.60;94.90;;;;;;5015456;28;20705;-78
2023/07/28 11:27:57;;;;;;;2.10;2.00;;;26.60;95.20;;;;;;5015359;28;20169;-78
2023/07/28 11:30:24;;;;;;;2.13;2.03;;;26.60;95.80;;;;;;5016561;28;20173;-76
2023/07/28 11:32:51;;;;;;;2.13;2.03;;;26.50;96.80;;;;;;5015892;28;20201;-76
2023/07/28 11:35:20;;;;;;;3.25;2.20;;;26.50;97.10;;;;;;5014960;28;20332;-77
2023/07/28 11:37:48;;;;;;;2.00;1.90;;;26.50;98.00;;;;;;5014997;28;20177;-78
2023/07/28 11:40:16;;;;;;;2.00;1.90;;;26.50;97.90;;;;;;5014959;28;20176;-79
2023/07/28 11:42:47;;;;;;;2.28;2.17;;;26.50;98.50;;;;;;5014781;28;20215;-76
2023/07/28 11:45:15;;;;;;;2.20;2.10;;;26.40;98.10;;;;;;4996775;28;20726;-77
2023/07/28 11:47:57;;;;;;;2.10;2.00;;;26.40;98.20;;;;;;5014580;28;20263;-77
2023/07/28 11:50:33;;;;;;;2.13;1.98;;;26.30;97.70;;;;;;5014651;28;20177;-78
2023/07/28 11:52:59;;;;;;;1.85;1.75;;;26.30;97.10;;;;;;5014498;28;20161;-77
2023/07/28 11:55:25;;;;;;;4.18;1.80;;;26.30;97.40;;;;;;5014032;28;20181;-76
2023/07/28 11:57:54;;;;;;;3.05;2.10;;;26.30;97.20;;;;;;5020033;28;20200;-79
2023/07/28 12:00:30;;;;;;;2.13;1.88;;;26.30;97.60;;;;;;5015248;28;20173;-78
2023/07/28 12:03:10;;;;;;;1.92;1.83;;;26.20;97.70;;;;;;5014321;28;20181;-80
2023/07/28 12:05:38;;;;;;;2.08;1.98;;;26.40;97.00;;;;;;5016345;28;20564;-78
2023/07/28 12:08:04;;;;;;;1.90;1.90;;;26.50;96.80;;;;;;4999810;28;20173;-77
2023/07/28 12:10:33;;;;;;;2.30;2.20;;;26.50;97.10;;;;;;5019953;28;20191;-78
2023/07/28 12:13:07;;;;;;;1.77;1.70;;;26.60;97.60;;;;;;5015104;28;20173;-77
2023/07/28 12:15:34;;;;;;;1.75;1.75;;;26.60;97.20;;;;;;4996578;28;20184;-76
2023/07/28 12:18:04;;;;;;;2.67;1.90;;;26.70;96.70;;;;;;4996442;28;20637;-75
2023/07/28 12:20:38;;;;;;;2.30;2.20;;;26.80;96.20;;;;;;5014584;28;20260;-76
2023/07/28 12:23:04;;;;;;;2.05;1.95;;;26.90;96.60;;;;;;5013861;28;20240;-76
2023/07/28 12:25:30;;;;;;;2.33;2.22;;;26.90;97.10;;;;;;5014566;28;20201;-76
2023/07/28 12:27:56;;;;;;;2.00;1.90;;;26.90;97.00;;;;;;5018168;28;20165;-77
2023/07/28 12:30:22;;;;;;;2.25;2.15;;;26.90;97.20;;;;;;5017931;28;20651;-77
2023/07/28 12:32:48;;;;;;;2.25;2.15;;;26.90;95.90;;;;;;5017993;28;20178;-75
2023/07/28 12:35:14;;;;;;;2.33;2.15;;;27.00;95.60;;;;;;5017955;28;20172;-77
2023/07/28 12:37:41;;;;;;;1.90;1.80;;;27.00;95.30;;;;;;5017840;28;20243;-77
2023/07/28 12:40:08;;;;;;;2.10;2.00;;;27.00;95.30;;;;;;4999887;28;20189;-77
2023/07/28 12:42:34;;;;;;;2.33;2.13;;;27.10;94.20;;;;;;5018965;28;20175;-78
2023/07/28 12:45:00;;;;;;;1.90;1.80;;;26.90;94.50;;;;;;5031784;28;20315;-78
2023/07/28 12:47:26;;;;;;;2.00;1.90;;;26.90;95.90;;;;;;5041463;28;20192;-79